createdAt,value
2019-05-20T00:00:17.290Z,13.0
2019-05-20T00:01:18.685Z,13.1
2019-05-20T00:02:26.010Z,13.0
2019-05-20T00:03:21.542Z,13.0
2019-05-20T00:04:22.961Z,13.0
2019-05-20T00:05:24.808Z,12.9
2019-05-20T00:06:25.886Z,12.8
2019-05-20T00:07:27.386Z,12.8
2019-05-20T00:08:28.839Z,12.9
2019-05-20T00:09:30.146Z,12.8
2019-05-20T00:10:31.706Z,12.9
2019-05-20T00:11:33.107Z,12.9
2019-05-20T00:12:34.506Z,13.0
2019-05-20T00:13:36.029Z,13.0
2019-05-20T00:14:37.424Z,12.8
2019-05-20T00:15:38.820Z,12.8
2019-05-20T00:16:40.349Z,12.9
2019-05-20T00:17:41.745Z,12.9
2019-05-20T00:18:43.230Z,13.0
2019-05-20T00:19:44.625Z,12.9
2019-05-20T00:20:46.112Z,12.9
2019-05-20T00:21:47.512Z,13.0
2019-05-20T00:22:48.992Z,12.9
2019-05-20T00:23:50.397Z,12.8
2019-05-20T00:24:51.874Z,12.8
2019-05-20T00:25:53.271Z,12.8
2019-05-20T00:26:54.754Z,12.8
2019-05-20T00:27:56.154Z,12.8
2019-05-20T00:28:57.635Z,12.8
2019-05-20T00:29:59.035Z,12.8
2019-05-20T00:31:00.584Z,12.8
2019-05-20T00:32:01.949Z,12.8
2019-05-20T00:33:03.601Z,12.7
2019-05-20T00:34:04.999Z,12.8
2019-05-20T00:35:06.396Z,12.8
2019-05-20T00:36:07.995Z,12.8
2019-05-20T00:37:09.421Z,12.8
2019-05-20T00:38:10.818Z,12.8
2019-05-20T00:39:12.450Z,12.8
2019-05-20T00:40:13.846Z,12.8
2019-05-20T00:41:15.251Z,12.8
2019-05-20T00:42:16.780Z,12.6
2019-05-20T00:43:18.174Z,12.7
2019-05-20T00:44:19.654Z,12.7
2019-05-20T00:45:21.045Z,12.7
2019-05-20T00:46:22.451Z,12.7
2019-05-20T00:47:23.971Z,12.7
2019-05-20T00:48:25.380Z,12.7
2019-05-20T00:49:26.773Z,12.7
2019-05-20T00:50:28.294Z,12.7
2019-05-20T00:51:29.691Z,12.8
2019-05-20T00:52:31.182Z,12.7
2019-05-20T00:53:32.585Z,12.6
2019-05-20T00:54:34.262Z,12.7
2019-05-20T00:55:35.655Z,12.6
2019-05-20T00:56:37.055Z,12.7
2019-05-20T00:57:38.504Z,12.6
2019-05-20T00:58:39.898Z,12.6
2019-05-20T00:59:41.467Z,12.6
2019-05-20T01:00:42.858Z,12.7
2019-05-20T01:01:44.345Z,12.6
2019-05-20T01:02:56.461Z,12.6
2019-05-20T01:03:47.225Z,12.6
2019-05-20T01:04:48.621Z,12.7
2019-05-20T01:05:50.031Z,12.5
2019-05-20T01:06:51.546Z,12.6
2019-05-20T01:07:52.996Z,12.8
2019-05-20T01:08:54.400Z,12.7
2019-05-20T01:09:55.869Z,12.7
2019-05-20T01:10:57.269Z,12.6
2019-05-20T01:11:58.669Z,12.6
2019-05-20T01:13:00.189Z,12.6
2019-05-20T01:14:01.581Z,12.7
2019-05-20T01:15:02.984Z,12.6
2019-05-20T01:16:04.517Z,12.5
2019-05-20T01:17:05.911Z,12.6
2019-05-20T01:18:07.315Z,12.6
2019-05-20T01:19:08.835Z,12.6
2019-05-20T01:20:10.235Z,12.7
2019-05-20T01:21:11.628Z,12.6
2019-05-20T01:22:13.171Z,12.8
2019-05-20T01:23:14.555Z,12.8
2019-05-20T01:24:16.037Z,12.6
2019-05-20T01:25:17.432Z,12.7
2019-05-20T01:26:18.917Z,12.5
2019-05-20T01:27:20.312Z,12.6
2019-05-20T01:28:21.807Z,12.6
2019-05-20T01:29:23.238Z,12.6
2019-05-20T01:30:24.887Z,12.5
2019-05-20T01:31:26.282Z,12.6
2019-05-20T01:32:27.677Z,12.5
2019-05-20T01:33:29.208Z,12.5
2019-05-20T01:34:30.667Z,12.6
2019-05-20T01:35:32.062Z,12.6
2019-05-20T01:36:33.785Z,12.6
2019-05-20T01:37:35.098Z,12.7
2019-05-20T01:38:36.991Z,12.6
2019-05-20T01:39:38.389Z,12.6
2019-05-20T01:40:39.790Z,12.5
2019-05-20T01:41:41.341Z,12.5
2019-05-20T01:42:42.735Z,12.5
2019-05-20T01:43:44.132Z,12.5
2019-05-20T01:44:45.692Z,12.5
2019-05-20T01:45:47.147Z,12.6
2019-05-20T01:46:48.552Z,12.6
2019-05-20T01:47:50.187Z,12.5
2019-05-20T01:48:51.583Z,12.6
2019-05-20T01:49:52.980Z,12.5
2019-05-20T01:50:54.524Z,12.5
2019-05-20T01:51:55.929Z,12.5
2019-05-20T01:52:57.327Z,12.6
2019-05-20T01:53:58.829Z,12.5
2019-05-20T01:55:00.240Z,12.5
2019-05-20T01:56:01.657Z,12.5
2019-05-20T01:57:03.151Z,12.4
2019-05-20T01:58:04.552Z,12.4
2019-05-20T01:59:06.035Z,12.5
2019-05-20T02:00:07.429Z,12.5
2019-05-20T02:01:08.914Z,12.5
2019-05-20T02:02:10.313Z,12.4
2019-05-20T02:03:11.710Z,12.4
2019-05-20T02:04:13.233Z,12.4
2019-05-20T02:05:14.635Z,12.5
2019-05-20T02:06:16.030Z,12.5
2019-05-20T02:07:17.554Z,12.4
2019-05-20T02:08:19.368Z,12.4
2019-05-20T02:09:20.848Z,12.3
2019-05-20T02:10:22.243Z,12.4
2019-05-20T02:11:23.639Z,12.4
2019-05-20T02:12:25.574Z,12.3
2019-05-20T02:13:26.971Z,12.4
2019-05-20T02:14:28.370Z,12.4
2019-05-20T02:15:29.900Z,12.4
2019-05-20T02:16:31.316Z,12.4
2019-05-20T02:17:32.774Z,12.4
2019-05-20T02:18:34.428Z,12.4
2019-05-20T02:19:35.823Z,12.3
2019-05-20T02:20:37.302Z,12.3
2019-05-20T02:21:38.702Z,12.2
2019-05-20T02:22:40.154Z,12.3
2019-05-20T02:23:41.502Z,12.4
2019-05-20T02:24:42.897Z,12.4
2019-05-20T02:25:46.669Z,12.4
2019-05-20T02:26:45.875Z,12.3
2019-05-20T02:27:47.278Z,12.3
2019-05-20T02:28:48.832Z,12.3
2019-05-20T02:29:50.230Z,12.3
2019-05-20T02:30:51.637Z,12.2
2019-05-20T02:31:53.152Z,12.2
2019-05-20T02:32:54.548Z,12.2
2019-05-20T02:33:56.001Z,12.3
2019-05-20T02:34:57.478Z,12.3
2019-05-20T02:35:58.876Z,12.2
2019-05-20T02:37:00.272Z,12.3
2019-05-20T02:38:01.799Z,12.3
2019-05-20T02:39:03.243Z,12.3
2019-05-20T02:40:05.259Z,12.3
2019-05-20T02:41:06.656Z,12.3
2019-05-20T02:42:08.175Z,12.3
2019-05-20T02:43:09.574Z,12.2
2019-05-20T02:44:11.052Z,12.3
2019-05-20T02:45:12.451Z,12.4
2019-05-20T02:46:13.848Z,12.3
2019-05-20T02:47:15.387Z,12.3
2019-05-20T02:48:16.782Z,12.3
2019-05-20T02:49:18.172Z,12.2
2019-05-20T02:50:19.698Z,12.1
2019-05-20T02:51:21.099Z,12.3
2019-05-20T02:52:22.495Z,12.2
2019-05-20T02:53:24.019Z,12.3
2019-05-20T02:54:25.416Z,12.2
2019-05-20T02:55:26.847Z,12.3
2019-05-20T02:56:28.340Z,12.3
2019-05-20T02:57:29.739Z,12.2
2019-05-20T02:58:31.140Z,12.3
2019-05-20T02:59:32.664Z,12.3
2019-05-20T03:00:34.080Z,12.3
2019-05-20T03:01:35.480Z,12.3
2019-05-20T03:02:36.992Z,12.3
2019-05-20T03:03:38.388Z,12.2
2019-05-20T03:04:39.780Z,12.4
2019-05-20T03:05:41.361Z,12.4
2019-05-20T03:06:42.785Z,12.3
2019-05-20T03:07:44.183Z,12.5
2019-05-20T03:08:45.834Z,12.6
2019-05-20T03:09:47.237Z,12.6
2019-05-20T03:10:48.711Z,12.7
2019-05-20T03:11:50.106Z,12.8
2019-05-20T03:12:51.502Z,13.0
2019-05-20T03:13:53.030Z,12.9
2019-05-20T03:14:54.431Z,13.0
2019-05-20T03:15:55.832Z,13.0
2019-05-20T03:16:57.355Z,13.1
2019-05-20T03:17:58.751Z,13.0
2019-05-20T03:19:00.149Z,13.1
2019-05-20T03:20:01.676Z,13.1
2019-05-20T03:21:03.079Z,13.1
2019-05-20T03:22:04.476Z,13.0
2019-05-20T03:23:06.376Z,13.1
2019-05-20T03:24:07.772Z,13.2
2019-05-20T03:25:09.298Z,13.2
2019-05-20T03:26:10.686Z,13.3
2019-05-20T03:27:12.224Z,13.2
2019-05-20T03:28:13.628Z,13.4
2019-05-20T03:29:15.254Z,13.4
2019-05-20T03:30:16.669Z,13.4
2019-05-20T03:31:18.135Z,13.3
2019-05-20T03:32:19.569Z,13.3
2019-05-20T03:33:21.229Z,13.3
2019-05-20T03:34:43.380Z,13.3
2019-05-20T03:35:24.005Z,13.4
2019-05-20T03:36:25.548Z,13.4
2019-05-20T03:37:26.947Z,13.5
2019-05-20T03:38:28.850Z,13.3
2019-05-20T03:39:30.626Z,13.4
2019-05-20T03:40:32.124Z,13.4
2019-05-20T03:41:33.522Z,13.5
2019-05-20T03:42:34.935Z,13.5
2019-05-20T03:43:36.495Z,13.4
2019-05-20T03:44:37.893Z,13.5
2019-05-20T03:45:39.331Z,13.6
2019-05-20T03:46:40.977Z,13.6
2019-05-20T03:47:42.382Z,13.5
2019-05-20T03:48:44.163Z,13.5
2019-05-20T03:49:45.704Z,13.6
2019-05-20T03:50:47.099Z,13.5
2019-05-20T03:51:52.224Z,13.6
2019-05-20T03:52:50.029Z,13.5
2019-05-20T03:53:51.432Z,13.5
2019-05-20T03:54:52.930Z,13.6
2019-05-20T03:55:54.329Z,13.5
2019-05-20T03:56:55.997Z,13.6
2019-05-20T03:57:57.800Z,13.7
2019-05-20T03:58:59.201Z,13.6
2019-05-20T04:00:00.770Z,13.6
2019-05-20T04:01:02.175Z,13.6
2019-05-20T04:02:03.571Z,13.6
2019-05-20T04:03:05.047Z,13.7
2019-05-20T04:04:06.447Z,13.7
2019-05-20T04:05:07.848Z,13.6
2019-05-20T04:06:09.367Z,13.7
2019-05-20T04:07:10.761Z,13.7
2019-05-20T04:08:12.166Z,13.7
2019-05-20T04:09:13.689Z,13.6
2019-05-20T04:10:15.089Z,13.6
2019-05-20T04:11:16.567Z,13.6
2019-05-20T04:12:17.981Z,13.7
2019-05-20T04:13:20.856Z,13.7
2019-05-20T04:14:22.252Z,13.7
2019-05-20T04:15:23.764Z,13.8
2019-05-20T04:16:25.164Z,13.7
2019-05-20T04:17:26.643Z,13.7
2019-05-20T04:18:28.045Z,13.7
2019-05-20T04:19:29.526Z,13.7
2019-05-20T04:20:30.925Z,13.7
2019-05-20T04:21:32.413Z,13.8
2019-05-20T04:22:33.809Z,13.8
2019-05-20T04:23:35.569Z,13.8
2019-05-20T04:24:36.935Z,13.8
2019-05-20T04:25:38.334Z,13.7
2019-05-20T04:26:39.741Z,13.8
2019-05-20T04:27:41.302Z,13.8
2019-05-20T04:28:42.703Z,13.7
2019-05-20T04:29:44.341Z,13.8
2019-05-20T04:30:45.745Z,13.8
2019-05-20T04:31:47.228Z,13.8
2019-05-20T04:32:48.658Z,13.7
2019-05-20T04:33:50.055Z,13.8
2019-05-20T04:34:51.546Z,13.8
2019-05-20T04:35:52.949Z,13.9
2019-05-20T04:36:54.349Z,13.8
2019-05-20T04:37:55.873Z,13.9
2019-05-20T04:38:57.274Z,13.8
2019-05-20T04:39:58.695Z,13.8
2019-05-20T04:41:00.188Z,14.0
2019-05-20T04:42:01.668Z,14.0
2019-05-20T04:43:03.005Z,14.0
2019-05-20T04:44:04.584Z,14.0
2019-05-20T04:45:05.986Z,14.0
2019-05-20T04:46:07.594Z,13.9
2019-05-20T04:47:08.994Z,14.0
2019-05-20T04:48:13.722Z,14.0
2019-05-20T04:49:11.846Z,14.1
2019-05-20T04:50:13.356Z,14.1
2019-05-20T04:51:14.759Z,14.0
2019-05-20T04:52:16.234Z,14.0
2019-05-20T04:53:17.635Z,14.0
2019-05-20T04:54:19.148Z,14.0
2019-05-20T04:55:20.548Z,14.1
2019-05-20T04:56:22.201Z,14.2
2019-05-20T04:57:23.604Z,14.0
2019-05-20T04:58:25.088Z,14.0
2019-05-20T04:59:26.490Z,14.1
2019-05-20T05:00:27.964Z,14.1
2019-05-20T05:01:29.368Z,14.2
2019-05-20T05:02:30.844Z,14.1
2019-05-20T05:03:32.245Z,14.1
2019-05-20T05:04:33.647Z,14.2
2019-05-20T05:05:37.745Z,14.2
2019-05-20T05:06:36.562Z,14.1
2019-05-20T05:07:37.933Z,14.2
2019-05-20T05:08:39.487Z,14.2
2019-05-20T05:09:41.267Z,14.2
2019-05-20T05:10:42.689Z,14.2
2019-05-20T05:11:44.218Z,14.1
2019-05-20T05:12:45.628Z,14.2
2019-05-20T05:13:47.028Z,14.2
2019-05-20T05:14:48.600Z,14.2
2019-05-20T05:15:50.037Z,14.2
2019-05-20T05:16:51.629Z,14.2
2019-05-20T05:17:53.035Z,14.3
2019-05-20T05:18:54.434Z,14.3
2019-05-20T05:19:55.950Z,14.3
2019-05-20T05:20:57.393Z,14.3
2019-05-20T05:21:58.800Z,14.2
2019-05-20T05:23:00.265Z,14.3
2019-05-20T05:24:01.621Z,14.3
2019-05-20T05:25:03.151Z,14.3
2019-05-20T05:26:04.554Z,14.3
2019-05-20T05:27:06.030Z,14.3
2019-05-20T05:28:07.440Z,14.3
2019-05-20T05:29:08.839Z,14.4
2019-05-20T05:30:10.353Z,14.3
2019-05-20T05:31:11.757Z,14.4
2019-05-20T05:32:13.162Z,14.4
2019-05-20T05:33:14.675Z,14.4
2019-05-20T05:34:16.108Z,14.4
2019-05-20T05:35:17.561Z,14.4
2019-05-20T05:36:18.961Z,14.4
2019-05-20T05:37:20.454Z,14.3
2019-05-20T05:38:21.837Z,14.4
2019-05-20T05:39:23.236Z,14.4
2019-05-20T05:40:24.777Z,14.4
2019-05-20T05:41:26.186Z,14.4
2019-05-20T05:42:27.603Z,14.3
2019-05-20T05:43:29.075Z,14.4
2019-05-20T05:44:30.486Z,14.4
2019-05-20T05:45:31.892Z,14.5
2019-05-20T05:46:33.396Z,14.4
2019-05-20T05:47:34.876Z,14.5
2019-05-20T05:48:36.270Z,14.5
2019-05-20T05:49:37.924Z,14.4
2019-05-20T05:50:39.330Z,14.4
2019-05-20T05:51:40.752Z,14.4
2019-05-20T05:52:42.245Z,14.4
2019-05-20T05:53:44.451Z,14.5
2019-05-20T05:54:45.825Z,14.5
2019-05-20T05:55:47.386Z,14.5
2019-05-20T05:56:48.793Z,14.5
2019-05-20T05:57:50.268Z,14.5
2019-05-20T05:58:51.723Z,14.5
2019-05-20T05:59:53.358Z,14.6
2019-05-20T06:00:54.782Z,14.5
2019-05-20T06:01:56.440Z,14.5
2019-05-20T06:02:57.844Z,14.6
2019-05-20T06:03:59.273Z,14.5
2019-05-20T06:05:00.729Z,14.6
2019-05-20T06:06:12.369Z,14.6
2019-05-20T06:07:03.489Z,14.5
2019-05-20T06:08:05.040Z,14.7
2019-05-20T06:09:06.439Z,14.5
2019-05-20T06:10:07.848Z,14.5
2019-05-20T06:11:09.360Z,14.6
2019-05-20T06:12:10.764Z,14.5
2019-05-20T06:13:12.242Z,14.5
2019-05-20T06:14:13.645Z,14.7
2019-05-20T06:15:15.061Z,14.7
2019-05-20T06:16:16.559Z,14.7
2019-05-20T06:17:17.965Z,14.7
2019-05-20T06:18:19.361Z,14.7
2019-05-20T06:19:20.901Z,14.7
2019-05-20T06:20:22.328Z,14.8
2019-05-20T06:21:23.774Z,14.8
2019-05-20T06:22:25.173Z,14.8
2019-05-20T06:23:26.644Z,14.8
2019-05-20T06:24:28.050Z,14.8
2019-05-20T06:25:29.684Z,14.8
2019-05-20T06:26:31.087Z,14.8
2019-05-20T06:27:32.658Z,14.8
2019-05-20T06:28:34.062Z,14.8
2019-05-20T06:29:35.504Z,14.8
2019-05-20T06:30:36.911Z,14.8
2019-05-20T06:31:38.422Z,14.9
2019-05-20T06:32:39.824Z,14.9
2019-05-20T06:33:41.256Z,14.8
2019-05-20T06:34:43.182Z,14.9
2019-05-20T06:35:44.146Z,14.8
2019-05-20T06:36:45.554Z,14.9
2019-05-20T06:37:47.060Z,14.9
2019-05-20T06:38:48.479Z,14.9
2019-05-20T06:39:51.266Z,14.9
2019-05-20T06:40:51.417Z,14.9
2019-05-20T06:41:52.818Z,14.9
2019-05-20T06:42:54.222Z,14.9
2019-05-20T06:43:55.661Z,14.9
2019-05-20T06:44:57.375Z,14.9
2019-05-20T06:45:58.435Z,14.9
2019-05-20T06:47:00.056Z,15.0
2019-05-20T06:48:01.497Z,15.0
2019-05-20T06:49:02.901Z,15.0
2019-05-20T06:50:04.513Z,15.1
2019-05-20T06:51:05.952Z,14.9
2019-05-20T06:52:07.488Z,14.9
2019-05-20T06:53:08.888Z,14.9
2019-05-20T06:54:10.864Z,15.0
2019-05-20T06:55:12.262Z,15.0
2019-05-20T06:56:13.770Z,15.1
2019-05-20T06:57:15.362Z,15.0
2019-05-20T06:58:16.652Z,15.0
2019-05-20T06:59:18.057Z,14.9
2019-05-20T07:00:19.542Z,15.1
2019-05-20T07:01:20.941Z,15.1
2019-05-20T07:02:22.416Z,15.1
2019-05-20T07:03:23.820Z,15.1
2019-05-20T07:04:25.297Z,15.1
2019-05-20T07:05:26.697Z,15.1
2019-05-20T07:06:44.603Z,15.1
2019-05-20T07:07:29.466Z,15.1
2019-05-20T07:08:30.881Z,15.1
2019-05-20T07:09:32.290Z,15.1
2019-05-20T07:10:33.706Z,15.1
2019-05-20T07:11:35.103Z,15.0
2019-05-20T07:12:41.351Z,15.0
2019-05-20T07:13:37.985Z,15.1
2019-05-20T07:14:39.387Z,15.1
2019-05-20T07:15:40.934Z,15.0
2019-05-20T07:16:42.358Z,15.1
2019-05-20T07:17:43.769Z,15.1
2019-05-20T07:18:45.321Z,15.2
2019-05-20T07:19:46.851Z,15.2
2019-05-20T07:20:48.396Z,15.3
2019-05-20T07:21:49.999Z,15.2
2019-05-20T07:22:55.949Z,15.2
2019-05-20T07:23:52.879Z,15.3
2019-05-20T07:24:54.282Z,15.3
2019-05-20T07:25:55.775Z,15.3
2019-05-20T07:26:57.155Z,15.4
2019-05-20T07:27:58.630Z,15.4
2019-05-20T07:29:00.079Z,15.4
2019-05-20T07:30:01.513Z,15.4
2019-05-20T07:31:02.916Z,15.5
2019-05-20T07:32:04.391Z,15.5
2019-05-20T07:33:05.796Z,15.5
2019-05-20T07:34:07.271Z,15.5
2019-05-20T07:35:08.677Z,15.6
2019-05-20T07:36:10.297Z,15.6
2019-05-20T07:37:11.532Z,15.6
2019-05-20T07:38:13.033Z,15.7
2019-05-20T07:39:14.457Z,15.7
2019-05-20T07:40:15.991Z,15.6
2019-05-20T07:41:17.394Z,15.7
2019-05-20T07:42:19.002Z,15.6
2019-05-20T07:43:20.406Z,15.6
2019-05-20T07:44:21.881Z,15.8
2019-05-20T07:45:23.321Z,15.7
2019-05-20T07:46:24.725Z,15.7
2019-05-20T07:47:26.205Z,15.7
2019-05-20T07:48:27.768Z,15.8
2019-05-20T07:49:28.982Z,15.6
2019-05-20T07:50:30.537Z,15.6
2019-05-20T07:51:31.945Z,15.7
2019-05-20T07:52:33.352Z,15.7
2019-05-20T07:53:34.953Z,15.7
2019-05-20T07:54:36.223Z,15.6
2019-05-20T07:55:37.630Z,15.5
2019-05-20T07:56:39.172Z,15.6
2019-05-20T07:57:40.588Z,15.8
2019-05-20T07:58:42.052Z,15.7
2019-05-20T07:59:43.461Z,15.8
2019-05-20T08:00:44.932Z,15.7
2019-05-20T08:01:46.342Z,15.7
2019-05-20T08:02:47.817Z,15.6
2019-05-20T08:03:49.223Z,15.7
2019-05-20T08:04:50.695Z,15.6
2019-05-20T08:05:52.103Z,15.5
2019-05-20T08:06:53.509Z,15.6
2019-05-20T08:07:55.019Z,15.6
2019-05-20T08:08:56.424Z,15.5
2019-05-20T08:09:57.825Z,15.5
2019-05-20T08:10:59.350Z,15.6
2019-05-20T08:12:00.834Z,15.6
2019-05-20T08:13:02.247Z,15.6
2019-05-20T08:14:03.661Z,15.6
2019-05-20T08:15:05.069Z,15.7
2019-05-20T08:16:06.488Z,15.7
2019-05-20T08:17:08.017Z,15.7
2019-05-20T08:18:09.419Z,15.7
2019-05-20T08:19:10.863Z,15.8
2019-05-20T08:20:12.273Z,15.8
2019-05-20T08:21:13.685Z,15.8
2019-05-20T08:22:15.210Z,15.8
2019-05-20T08:23:16.619Z,15.9
2019-05-20T08:24:18.052Z,15.8
2019-05-20T08:25:19.509Z,15.8
2019-05-20T08:26:20.911Z,15.8
2019-05-20T08:27:22.389Z,15.8
2019-05-20T08:28:23.802Z,15.7
2019-05-20T08:29:25.265Z,15.7
2019-05-20T08:30:26.684Z,15.8
2019-05-20T08:31:28.084Z,15.7
2019-05-20T08:32:29.622Z,15.7
2019-05-20T08:33:31.312Z,15.8
2019-05-20T08:34:32.956Z,15.7
2019-05-20T08:35:34.325Z,15.7
2019-05-20T08:36:35.721Z,15.8
2019-05-20T08:37:45.429Z,15.6
2019-05-20T08:38:38.577Z,15.5
2019-05-20T08:39:40.084Z,15.6
2019-05-20T08:40:41.482Z,15.6
2019-05-20T08:41:42.894Z,15.7
2019-05-20T08:42:44.405Z,15.7
2019-05-20T08:43:45.864Z,15.7
2019-05-20T08:44:47.251Z,15.6
2019-05-20T08:45:48.730Z,15.7
2019-05-20T08:46:50.145Z,15.8
2019-05-20T08:47:51.551Z,15.8
2019-05-20T08:48:53.067Z,15.8
2019-05-20T08:49:54.572Z,15.8
2019-05-20T08:50:55.863Z,15.7
2019-05-20T08:51:57.367Z,15.9
2019-05-20T08:52:58.771Z,15.9
2019-05-20T08:54:00.222Z,15.9
2019-05-20T08:55:02.337Z,15.9
2019-05-20T08:56:03.119Z,15.9
2019-05-20T08:57:04.629Z,15.9
2019-05-20T08:58:06.012Z,15.9
2019-05-20T08:59:07.419Z,15.9
2019-05-20T09:00:08.891Z,15.9
2019-05-20T09:01:11.603Z,15.9
2019-05-20T09:02:11.675Z,15.8
2019-05-20T09:03:13.214Z,15.8
2019-05-20T09:04:14.622Z,15.8
2019-05-20T09:05:16.032Z,15.8
2019-05-20T09:06:20.570Z,15.9
2019-05-20T09:07:18.924Z,15.8
2019-05-20T09:08:20.410Z,15.9
2019-05-20T09:09:21.937Z,15.9
2019-05-20T09:10:23.294Z,15.9
2019-05-20T09:11:24.699Z,16.0
2019-05-20T09:12:26.193Z,16.1
2019-05-20T09:13:27.614Z,16.0
2019-05-20T09:14:29.058Z,16.0
2019-05-20T09:15:30.605Z,16.0
2019-05-20T09:16:32.160Z,16.0
2019-05-20T09:17:33.783Z,16.0
2019-05-20T09:18:34.965Z,16.1
2019-05-20T09:19:36.464Z,16.2
2019-05-20T09:20:37.883Z,16.2
2019-05-20T09:21:39.287Z,16.1
2019-05-20T09:22:40.790Z,16.2
2019-05-20T09:23:42.202Z,16.1
2019-05-20T09:24:43.851Z,16.2
2019-05-20T09:25:45.069Z,16.2
2019-05-20T09:26:46.549Z,16.2
2019-05-20T09:27:47.960Z,16.2
2019-05-20T09:28:49.463Z,16.2
2019-05-20T09:29:50.871Z,16.2
2019-05-20T09:30:52.309Z,16.2
2019-05-20T09:31:53.718Z,16.3
2019-05-20T09:32:55.177Z,16.3
2019-05-20T09:33:56.635Z,16.4
2019-05-20T09:34:58.045Z,16.4
2019-05-20T09:35:59.441Z,16.5
2019-05-20T09:37:00.955Z,16.3
2019-05-20T09:38:17.255Z,16.4
2019-05-20T09:39:03.854Z,16.5
2019-05-20T09:40:05.247Z,16.5
2019-05-20T09:41:06.723Z,16.4
2019-05-20T09:42:08.173Z,16.4
2019-05-20T09:43:09.555Z,16.3
2019-05-20T09:44:11.038Z,16.4
2019-05-20T09:45:12.447Z,16.4
2019-05-20T09:46:13.850Z,16.4
2019-05-20T09:47:15.372Z,16.4
2019-05-20T09:48:16.776Z,16.5
2019-05-20T09:49:18.190Z,16.5
2019-05-20T09:50:19.679Z,16.5
2019-05-20T09:51:21.214Z,16.5
2019-05-20T09:52:22.468Z,16.5
2019-05-20T09:53:24.050Z,16.5
2019-05-20T09:54:25.371Z,16.4
2019-05-20T09:55:26.887Z,16.4
2019-05-20T09:56:28.291Z,16.4
2019-05-20T09:57:29.771Z,16.5
2019-05-20T09:58:31.203Z,16.5
2019-05-20T09:59:42.562Z,16.5
2019-05-20T10:00:33.980Z,16.4
2019-05-20T10:01:39.430Z,16.5
2019-05-20T10:02:38.157Z,16.5
2019-05-20T10:03:38.413Z,16.5
2019-05-20T10:04:39.825Z,16.5
2019-05-20T10:05:41.316Z,16.6
2019-05-20T10:06:42.726Z,16.7
2019-05-20T10:07:44.139Z,16.6
2019-05-20T10:08:45.695Z,16.5
2019-05-20T10:09:47.013Z,16.6
2019-05-20T10:10:48.419Z,16.6
2019-05-20T10:11:49.964Z,16.7
2019-05-20T10:12:51.364Z,16.7
2019-05-20T10:13:52.867Z,16.8
2019-05-20T10:14:54.251Z,16.8
2019-05-20T10:15:55.723Z,16.8
2019-05-20T10:16:57.131Z,16.8
2019-05-20T10:17:58.574Z,16.8
2019-05-20T10:19:00.062Z,16.8
2019-05-20T10:20:01.902Z,16.9
2019-05-20T10:21:03.358Z,16.9
2019-05-20T10:22:04.776Z,16.8
2019-05-20T10:23:06.254Z,16.9
2019-05-20T10:24:07.609Z,16.9
2019-05-20T10:25:09.103Z,16.9
2019-05-20T10:26:10.505Z,16.8
2019-05-20T10:27:11.914Z,16.9
2019-05-20T10:28:13.418Z,16.9
2019-05-20T10:29:14.830Z,17.0
2019-05-20T10:30:16.238Z,16.9
2019-05-20T10:31:17.741Z,17.0
2019-05-20T10:32:19.158Z,17.0
2019-05-20T10:33:20.561Z,17.0
2019-05-20T10:34:22.063Z,17.0
2019-05-20T10:35:23.474Z,17.0
2019-05-20T10:36:24.881Z,17.1
2019-05-20T10:37:26.392Z,17.1
2019-05-20T10:38:27.820Z,17.0
2019-05-20T10:39:29.253Z,17.1
2019-05-20T10:40:30.788Z,17.1
2019-05-20T10:41:32.128Z,17.1
2019-05-20T10:42:33.551Z,17.1
2019-05-20T10:43:35.030Z,17.0
2019-05-20T10:44:36.440Z,17.1
2019-05-20T10:45:37.946Z,17.1
2019-05-20T10:46:39.350Z,17.1
2019-05-20T10:47:41.000Z,17.1
2019-05-20T10:48:42.395Z,17.1
2019-05-20T10:49:43.875Z,17.2
2019-05-20T10:50:45.282Z,17.2
2019-05-20T10:51:46.761Z,17.1
2019-05-20T10:52:48.163Z,17.1
2019-05-20T10:53:49.643Z,17.2
2019-05-20T10:54:51.064Z,17.3
2019-05-20T10:55:52.526Z,17.3
2019-05-20T10:56:53.932Z,17.4
2019-05-20T10:57:55.396Z,17.4
2019-05-20T10:58:56.805Z,17.3
2019-05-20T10:59:58.316Z,17.4
2019-05-20T11:01:03.295Z,17.3
2019-05-20T11:02:01.360Z,17.5
2019-05-20T11:03:03.004Z,17.4
2019-05-20T11:04:04.184Z,17.5
2019-05-20T11:05:05.688Z,17.3
2019-05-20T11:06:07.140Z,17.4
2019-05-20T11:07:08.469Z,17.5
2019-05-20T11:08:10.008Z,17.5
2019-05-20T11:09:13.988Z,17.4
2019-05-20T11:10:13.299Z,17.4
2019-05-20T11:11:14.831Z,17.4
2019-05-20T11:12:16.201Z,17.5
2019-05-20T11:13:17.609Z,17.5
2019-05-20T11:14:19.020Z,17.6
2019-05-20T11:15:20.512Z,17.5
2019-05-20T11:16:21.919Z,17.5
2019-05-20T11:17:23.355Z,17.4
2019-05-20T11:18:24.821Z,17.3
2019-05-20T11:19:26.232Z,17.4
2019-05-20T11:20:27.635Z,17.4
2019-05-20T11:21:29.144Z,17.4
2019-05-20T11:22:30.546Z,17.4
2019-05-20T11:23:31.951Z,17.4
2019-05-20T11:24:33.462Z,17.3
2019-05-20T11:25:34.884Z,17.3
2019-05-20T11:26:36.358Z,17.3
2019-05-20T11:27:37.786Z,17.4
2019-05-20T11:28:39.224Z,17.3
2019-05-20T11:29:40.626Z,17.4
2019-05-20T11:30:42.107Z,17.5
2019-05-20T11:31:43.509Z,17.5
2019-05-20T11:32:44.997Z,17.4
2019-05-20T11:33:46.399Z,17.4
2019-05-20T11:34:47.905Z,17.4
2019-05-20T11:35:49.323Z,17.4
2019-05-20T11:36:50.714Z,17.4
2019-05-20T11:37:52.120Z,17.5
2019-05-20T11:38:53.654Z,17.5
2019-05-20T11:39:55.073Z,17.4
2019-05-20T11:40:56.477Z,17.5
2019-05-20T11:41:57.949Z,17.5
2019-05-20T11:42:59.364Z,17.5
2019-05-20T11:44:00.843Z,17.5
2019-05-20T11:45:02.477Z,17.5
2019-05-20T11:46:03.910Z,17.5
2019-05-20T11:47:05.297Z,17.5
2019-05-20T11:48:06.820Z,17.6
2019-05-20T11:49:08.265Z,17.4
2019-05-20T11:50:09.895Z,17.4
2019-05-20T11:51:11.301Z,17.5
2019-05-20T11:52:12.766Z,17.7
2019-05-20T11:53:14.174Z,17.5
2019-05-20T11:54:15.667Z,17.5
2019-05-20T11:55:17.075Z,17.6
2019-05-20T11:56:18.527Z,17.3
2019-05-20T11:57:19.948Z,17.4
2019-05-20T11:58:21.401Z,17.4
2019-05-20T11:59:22.816Z,17.4
2019-05-20T12:00:24.326Z,17.4
2019-05-20T12:01:25.694Z,17.5
2019-05-20T12:02:27.172Z,17.4
2019-05-20T12:03:28.582Z,17.5
2019-05-20T12:04:29.990Z,17.4
2019-05-20T12:05:31.528Z,17.4
2019-05-20T12:06:32.936Z,17.5
2019-05-20T12:07:34.344Z,17.5
2019-05-20T12:08:35.815Z,17.5
2019-05-20T12:09:49.268Z,17.5
2019-05-20T12:10:38.631Z,17.6
2019-05-20T12:11:40.135Z,17.6
2019-05-20T12:12:41.543Z,17.6
2019-05-20T12:13:42.904Z,17.7
2019-05-20T12:14:44.455Z,17.7
2019-05-20T12:15:45.862Z,17.6
2019-05-20T12:16:47.342Z,17.6
2019-05-20T12:17:48.755Z,17.7
2019-05-20T12:18:50.218Z,17.7
2019-05-20T12:19:51.637Z,17.6
2019-05-20T12:20:53.096Z,17.7
2019-05-20T12:21:54.533Z,17.7
2019-05-20T12:22:56.010Z,17.7
2019-05-20T12:23:57.421Z,17.8
2019-05-20T12:24:58.881Z,17.8
2019-05-20T12:26:00.214Z,18.0
2019-05-20T12:27:01.737Z,17.9
2019-05-20T12:28:03.148Z,18.0
2019-05-20T12:29:04.621Z,17.9
2019-05-20T12:30:06.454Z,17.9
2019-05-20T12:31:07.827Z,17.8
2019-05-20T12:32:09.402Z,17.9
2019-05-20T12:33:18.410Z,18.0
2019-05-20T12:34:12.235Z,17.8
2019-05-20T12:35:13.891Z,17.9
2019-05-20T12:36:15.291Z,18.1
2019-05-20T12:37:16.751Z,18.1
2019-05-20T12:38:18.181Z,18.1
2019-05-20T12:39:20.010Z,18.1
2019-05-20T12:40:21.444Z,18.0
2019-05-20T12:41:23.280Z,18.1
2019-05-20T12:42:24.597Z,18.1
2019-05-20T12:43:26.001Z,18.1
2019-05-20T12:44:27.462Z,18.2
2019-05-20T12:45:28.876Z,18.2
2019-05-20T12:46:30.344Z,18.3
2019-05-20T12:47:31.753Z,18.4
2019-05-20T12:48:33.281Z,18.3
2019-05-20T12:49:34.745Z,18.4
2019-05-20T12:50:36.038Z,18.5
2019-05-20T12:51:37.547Z,18.5
2019-05-20T12:52:38.949Z,18.5
2019-05-20T12:53:40.447Z,18.5
2019-05-20T12:54:42.242Z,18.4
2019-05-20T12:55:43.647Z,18.5
2019-05-20T12:56:45.055Z,18.4
2019-05-20T12:57:46.595Z,18.6
2019-05-20T12:58:48.004Z,18.4
2019-05-20T12:59:49.409Z,18.5
2019-05-20T13:00:51.063Z,18.6
2019-05-20T13:01:52.470Z,18.5
2019-05-20T13:02:53.883Z,18.4
2019-05-20T13:03:55.446Z,18.4
2019-05-20T13:04:56.845Z,18.5
2019-05-20T13:05:58.304Z,18.6
2019-05-20T13:06:59.708Z,18.5
2019-05-20T13:08:01.202Z,18.6
2019-05-20T13:09:02.986Z,18.6
2019-05-20T13:10:04.552Z,18.7
2019-05-20T13:11:05.956Z,18.7
2019-05-20T13:12:07.588Z,18.8
2019-05-20T13:13:08.994Z,18.6
2019-05-20T13:14:10.467Z,18.7
2019-05-20T13:15:12.029Z,18.8
2019-05-20T13:16:13.528Z,18.7
2019-05-20T13:17:14.934Z,18.7
2019-05-20T13:18:16.429Z,18.7
2019-05-20T13:19:17.842Z,18.7
2019-05-20T13:20:19.309Z,18.7
2019-05-20T13:21:20.722Z,18.8
2019-05-20T13:22:22.191Z,18.7
2019-05-20T13:23:23.601Z,18.7
2019-05-20T13:24:25.099Z,18.7
2019-05-20T13:25:26.481Z,18.5
2019-05-20T13:26:27.962Z,18.7
2019-05-20T13:27:29.368Z,18.6
2019-05-20T13:28:30.868Z,18.6
2019-05-20T13:29:32.280Z,18.6
2019-05-20T13:30:33.902Z,18.5
2019-05-20T13:31:35.379Z,18.6
2019-05-20T13:32:37.017Z,18.4
2019-05-20T13:33:38.409Z,18.5
2019-05-20T13:34:39.894Z,18.4
2019-05-20T13:35:41.296Z,18.5
2019-05-20T13:36:42.714Z,18.5
2019-05-20T13:37:44.220Z,18.5